Time;durP1;ratioP1;P1;durP2;ratioP2;P2;SDS_P1;SDS_P2;PMS_P1;PMS_P2;Temp;Humidity;BMP_temperature;BMP_pressure;BME280_temperature;BME280_humidity;BME280_pressure;Samples;Min_cycle;Max_cycle;Signal;HPM_P1;HPM_P2
2022/05/14 00:00:29;;;;;;;2.28;1.55;;;;;;;17.31;58.70;99526.16;5087384;28;20036;-85
2022/05/14 00:02:55;;;;;;;5.03;2.38;;;;;;;17.50;58.36;99504.84;5087140;28;20531;-85
2022/05/14 00:05:23;;;;;;;2.53;1.35;;;;;;;17.46;58.55;99505.94;5091568;28;20035;-84
2022/05/14 00:07:50;;;;;;;2.22;1.60;;;;;;;17.32;58.64;99501.25;5093945;28;20141;-84
2022/05/14 00:10:18;;;;;;;6.22;3.78;;;;;;;17.20;59.27;99515.13;5097773;28;20031;-84
2022/05/14 00:15:28;;;;;;;2.10;1.65;;;;;;;17.15;59.92;99523.34;5100520;28;20487;-84
2022/05/14 00:17:54;;;;;;;3.10;1.95;;;;;;;17.09;59.97;99496.97;5088211;28;20075;-84
2022/05/14 00:20:23;;;;;;;3.03;1.95;;;;;;;16.93;59.94;99478.13;5087941;28;20035;-85
2022/05/14 00:22:50;;;;;;;18.58;2.63;;;;;;;17.04;60.30;99496.28;5088117;28;20141;-84
2022/05/14 00:25:16;;;;;;;1.98;1.52;;;;;;;17.13;60.11;99509.19;5087234;28;20514;-84
2022/05/14 00:27:43;;;;;;;3.90;2.63;;;;;;;17.12;60.65;99494.16;5095701;28;20042;-84
2022/05/14 00:30:10;;;;;;;3.38;2.30;;;;;;;17.10;60.40;99483.56;5107626;28;20070;-84
2022/05/14 00:32:37;;;;;;;3.28;1.73;;;;;;;17.33;60.30;99510.97;5107743;28;20059;-85
2022/05/14 00:35:04;;;;;;;2.83;2.35;;;;;;;17.21;60.14;99504.41;5104909;28;20142;-84
2022/05/14 00:37:29;;;;;;;4.65;2.10;;;;;;;17.04;60.26;99466.97;5087043;28;20073;-85
2022/05/14 00:39:55;;;;;;;2.65;1.73;;;;;;;17.24;60.75;99500.72;5102793;28;20550;-85
2022/05/14 00:42:21;;;;;;;4.40;2.33;;;;;;;16.94;60.86;99456.72;5106342;28;20047;-85
2022/05/14 00:44:46;;;;;;;2.53;1.98;;;;;;;17.08;60.95;99474.75;5093899;28;20044;-84
2022/05/14 00:47:15;;;;;;;2.22;1.38;;;;;;;17.09;61.23;99486.31;5088470;28;20404;-86
2022/05/14 00:49:41;;;;;;;2.67;1.80;;;;;;;17.16;61.27;99507.28;5098510;28;20035;-86
2022/05/14 00:52:13;;;;;;;2.40;1.92;;;;;;;17.03;61.81;99514.09;5087245;28;20084;-85
2022/05/14 00:54:43;;;;;;;5.65;2.88;;;;;;;16.85;61.46;99478.41;5069449;28;20031;-85
2022/05/14 00:57:13;;;;;;;1.95;1.58;;;;;;;16.90;61.81;99507.56;5090461;28;20032;-85
2022/05/14 00:59:39;;;;;;;1.95;1.75;;;;;;;16.94;62.05;99518.00;5106974;28;20032;-85
2022/05/14 01:02:06;;;;;;;4.97;2.35;;;;;;;16.73;62.27;99477.19;5106737;28;20054;-85
2022/05/14 01:04:32;;;;;;;3.47;2.03;;;;;;;16.42;62.16;99457.22;5092257;28;20024;-84
2022/05/14 01:07:08;;;;;;;1.58;1.35;;;;;;;16.49;62.62;99505.72;5086547;28;20505;-84
2022/05/14 01:09:35;;;;;;;4.28;2.88;;;;;;;16.39;62.98;99501.72;5087601;28;20020;-85
2022/05/14 01:12:01;;;;;;;4.47;1.50;;;;;;;16.49;63.29;99516.38;5067173;28;20486;-83
2022/05/14 01:14:27;;;;;;;3.70;1.63;;;;;;;16.44;63.36;99497.06;5100123;28;20036;-83
2022/05/14 01:16:53;;;;;;;1.70;1.50;;;;;;;16.49;63.12;99492.41;5107256;28;20088;-84
2022/05/14 01:19:19;;;;;;;1.73;1.15;;;;;;;16.33;63.93;99468.25;5086983;28;20036;-84
2022/05/14 01:21:58;;;;;;;3.30;1.60;;;;;;;16.52;63.72;99491.44;5087242;28;20032;-84
2022/05/14 01:27:11;;;;;;;2.10;1.77;;;;;;;16.28;63.76;99460.47;5104720;28;20145;-84
2022/05/14 01:29:38;;;;;;;2.65;1.48;;;;;;;16.50;63.44;99503.91;5069010;28;20131;-84
2022/05/14 01:32:04;;;;;;;4.25;2.13;;;;;;;16.42;63.46;99493.59;5086621;28;20036;-85
2022/05/14 01:34:34;;;;;;;1.92;1.65;;;;;;;16.48;63.35;99496.00;5103247;28;20052;-84
2022/05/14 01:37:00;;;;;;;3.08;1.83;;;;;;;16.36;63.78;99486.75;5106817;28;20031;-84
2022/05/14 01:39:26;;;;;;;2.55;1.85;;;;;;;16.40;63.37;99503.44;5086373;28;20517;-86
2022/05/14 01:41:52;;;;;;;3.40;2.80;;;;;;;16.45;63.76;99496.13;5086648;28;20411;-85
2022/05/14 01:44:19;;;;;;;4.68;1.95;;;;;;;16.32;63.12;99482.47;5105023;28;20043;-85
2022/05/14 01:46:45;;;;;;;1.38;1.13;;;;;;;16.32;63.25;99478.97;5106718;28;20040;-85
2022/05/14 01:49:11;;;;;;;2.53;1.55;;;;;;;16.37;63.81;99483.13;5083814;28;20510;-85
2022/05/14 01:51:36;;;;;;;;;;;;;;;16.17;64.23;99491.94;5092112;28;20134;-85
2022/05/14 01:54:02;;;;;;;2.30;1.73;;;;;;;16.08;64.13;99505.63;5084416;28;19927;-84
2022/05/14 01:56:28;;;;;;;3.05;1.85;;;;;;;16.11;64.60;99505.50;5068177;28;20043;-84
2022/05/14 01:58:53;;;;;;;3.92;2.35;;;;;;;16.13;63.91;99509.00;5102269;28;20035;-84
2022/05/14 02:01:29;;;;;;;;;;;;;;;16.19;63.71;99502.53;5107110;28;20055;-84
2022/05/14 02:03:59;;;;;;;1.63;1.52;;;;;;;15.99;63.28;99484.72;5089320;28;20699;-84
2022/05/14 02:06:26;;;;;;;2.58;1.75;;;;;;;15.95;63.54;99493.78;5068348;28;20561;-84
2022/05/14 02:08:52;;;;;;;3.42;2.25;;;;;;;15.85;64.16;99471.97;5102968;28;20044;-84
2022/05/14 02:11:18;;;;;;;7.47;1.48;;;;;;;16.03;63.28;99495.19;5105817;28;20138;-84
2022/05/14 02:13:45;;;;;;;2.38;1.52;;;;;;;15.86;64.00;99469.25;5090221;28;20114;-84
2022/05/14 02:16:11;;;;;;;4.32;2.67;;;;;;;15.99;64.19;99506.91;5076282;28;20436;-85
2022/05/14 02:18:37;;;;;;;3.10;2.40;;;;;;;15.95;64.65;99517.72;5094445;28;20464;-85
2022/05/14 02:21:05;;;;;;;1.63;1.17;;;;;;;15.88;64.17;99471.84;5085366;28;20113;-84
2022/05/14 02:23:32;;;;;;;5.03;2.63;;;;;;;15.96;64.56;99480.41;5103165;28;20032;-84
2022/05/14 02:25:58;;;;;;;7.07;2.25;;;;;;;15.95;63.81;99491.97;5088216;28;20568;-85
2022/05/14 02:28:23;;;;;;;1.98;1.80;;;;;;;16.16;62.95;99506.22;5089556;28;20071;-84
2022/05/14 02:30:49;;;;;;;3.05;2.38;;;;;;;15.99;62.42;99479.41;5071496;28;20126;-84
2022/05/14 02:33:15;;;;;;;;;;;;;;;16.04;63.20;99512.88;5102197;28;20039;-84
2022/05/14 02:35:41;;;;;;;3.67;2.00;;;;;;;15.98;62.94;99496.31;5089506;28;19919;-85
2022/05/14 02:38:08;;;;;;;3.78;1.90;;;;;;;15.83;62.59;99484.47;5090046;28;20036;-84
2022/05/14 02:40:33;;;;;;;6.03;3.78;;;;;;;15.93;62.58;99509.78;5091024;28;20058;-84
2022/05/14 02:42:59;;;;;;;3.80;2.92;;;;;;;15.78;62.19;99484.66;5110396;28;20413;-84
2022/05/14 02:45:24;;;;;;;8.00;2.63;;;;;;;15.50;62.93;99475.09;5095812;28;20032;-84
2022/05/14 02:47:50;;;;;;;;;;;;;;;15.72;62.54;99509.69;5071674;28;20067;-84
2022/05/14 02:50:16;;;;;;;4.20;2.92;;;;;;;15.56;62.87;99509.41;5089067;28;20034;-83
2022/05/14 02:52:42;;;;;;;3.00;1.75;;;;;;;15.60;62.87;99512.84;5071296;28;20468;-83
2022/05/14 02:55:09;;;;;;;4.47;3.05;;;;;;;15.52;62.49;99483.88;5089463;28;20028;-84
2022/05/14 02:57:35;;;;;;;3.47;2.85;;;;;;;15.48;63.43;99498.22;5089622;28;20521;-84
2022/05/14 03:00:02;;;;;;;3.38;2.78;;;;;;;15.29;63.20;99447.56;5099683;28;20143;-84
2022/05/14 03:02:28;;;;;;;2.88;2.33;;;;;;;15.58;62.29;99502.25;5109214;28;20024;-84
2022/05/14 03:04:53;;;;;;;3.95;2.42;;;;;;;15.57;62.50;99497.00;5109686;28;20077;-83
2022/05/14 03:07:19;;;;;;;;;;;;;;;15.46;63.06;99501.84;5110186;28;20496;-83
2022/05/14 03:09:45;;;;;;;3.50;1.85;;;;;;;14.98;63.97;99450.47;5108044;28;19919;-83
2022/05/14 03:12:14;;;;;;;24.48;4.20;;;;;;;15.35;64.06;99496.94;5089285;28;20456;-84
2022/05/14 03:14:40;;;;;;;3.72;1.98;;;;;;;15.08;64.21;99472.28;5104438;28;20069;-84
2022/05/14 03:17:05;;;;;;;3.75;2.65;;;;;;;15.29;63.78;99492.75;5109448;28;20055;-84
2022/05/14 03:19:31;;;;;;;3.85;2.15;;;;;;;15.30;63.78;99490.94;5098209;28;20039;-85
2022/05/14 03:21:57;;;;;;;2.63;2.08;;;;;;;15.01;64.17;99453.91;5107534;28;20040;-85
2022/05/14 03:24:23;;;;;;;;;;;;;;;15.37;64.27;99503.06;5097401;28;20036;-85
2022/05/14 03:26:49;;;;;;;5.97;1.55;;;;;;;15.22;64.47;99470.81;5089182;28;19923;-85
2022/05/14 03:29:15;;;;;;;2.90;1.98;;;;;;;15.29;64.33;99483.88;5088971;28;20040;-84
2022/05/14 03:31:41;;;;;;;2.70;1.63;;;;;;;15.63;64.43;99490.56;5104833;28;20100;-84
2022/05/14 03:34:10;;;;;;;6.45;3.05;;;;;;;15.63;64.61;99487.91;5099651;28;20042;-85
2022/05/14 03:36:37;;;;;;;2.95;2.45;;;;;;;15.53;64.82;99474.09;5108018;28;20088;-84
2022/05/14 03:39:03;;;;;;;4.55;2.70;;;;;;;15.39;64.56;99446.25;5107818;28;20044;-84
2022/05/14 03:41:29;;;;;;;2.22;1.33;;;;;;;15.79;64.03;99491.72;5091380;28;20032;-84
2022/05/14 03:43:55;;;;;;;7.53;4.13;;;;;;;15.89;64.18;99503.72;5088271;28;20032;-84
2022/05/14 03:46:20;;;;;;;3.60;2.15;;;;;;;15.92;64.53;99505.41;5088916;28;20122;-83
2022/05/14 03:48:45;;;;;;;4.57;3.28;;;;;;;16.07;64.32;99519.88;5087959;28;20147;-84
2022/05/14 03:51:11;;;;;;;;;;;;;;;16.00;64.36;99521.06;5102288;28;20471;-84
2022/05/14 03:53:37;;;;;;;2.05;1.23;;;;;;;15.85;64.10;99474.66;5097925;28;19916;-84
2022/05/14 03:56:04;;;;;;;2.83;1.35;;;;;;;16.01;63.37;99518.31;5070407;28;20036;-83
2022/05/14 03:58:31;;;;;;;4.35;2.95;;;;;;;15.89;63.70;99517.00;5095835;28;20024;-84
2022/05/14 04:00:57;;;;;;;2.67;1.90;;;;;;;15.93;63.58;99515.97;5095560;28;20028;-84
2022/05/14 04:03:23;;;;;;;9.15;2.90;;;;;;;16.19;62.95;99530.03;5072597;28;20028;-87
2022/05/14 04:05:49;;;;;;;3.40;2.53;;;;;;;16.31;63.13;99536.63;5087237;28;20051;-88
2022/05/14 04:08:15;;;;;;;2.47;1.90;;;;;;;16.16;63.73;99510.66;5087966;28;20063;-88
2022/05/14 04:10:41;;;;;;;6.05;2.83;;;;;;;16.45;64.03;99544.03;5095309;28;20035;-89
2022/05/14 04:13:06;;;;;;;3.08;2.13;;;;;;;16.28;63.29;99526.09;5098597;28;20537;-88
2022/05/14 04:15:32;;;;;;;3.25;1.88;;;;;;;16.59;63.67;99543.47;5096852;28;20028;-89
2022/05/14 04:17:57;;;;;;;2.30;1.48;;;;;;;16.74;62.23;99513.50;5079957;28;20039;-90
2022/05/14 04:20:23;;;;;;;5.47;3.40;;;;;;;16.92;61.94;99503.03;5089302;28;20063;-86
2022/05/14 04:22:50;;;;;;;3.97;3.17;;;;;;;17.27;61.93;99546.78;5107660;28;20474;-89
2022/05/14 04:25:17;;;;;;;3.95;2.67;;;;;;;17.47;61.59;99540.53;5089339;28;20024;-88
2022/05/14 04:27:44;;;;;;;2.75;1.95;;;;;;;17.62;61.31;99532.75;5083491;28;20484;-90
2022/05/14 04:30:11;;;;;;;3.45;2.05;;;;;;;17.97;61.29;99541.78;5078142;28;20781;-91
2022/05/14 04:32:36;;;;;;;4.78;2.70;;;;;;;18.08;60.57;99526.13;5107275;28;20096;-89
2022/05/14 04:35:02;;;;;;;4.95;2.15;;;;;;;18.18;60.65;99515.88;5089217;28;20487;-86
2022/05/14 04:37:28;;;;;;;3.05;2.75;;;;;;;18.24;60.33;99504.91;5108192;28;20031;-87
2022/05/14 04:39:53;;;;;;;2.63;1.67;;;;;;;18.31;60.27;99492.09;5080822;28;20535;-90
2022/05/14 04:42:19;;;;;;;2.92;2.03;;;;;;;18.99;60.04;99550.13;5107039;28;20054;-88
2022/05/14 04:44:44;;;;;;;4.65;3.40;;;;;;;18.93;59.31;99545.09;5089181;28;20541;-90
2022/05/14 04:47:10;;;;;;;2.88;2.40;;;;;;;19.19;58.93;99561.59;5106773;28;20062;-89
2022/05/14 04:49:41;;;;;;;3.35;2.13;;;;;;;19.44;58.61;99555.78;5091323;28;20036;-95
2022/05/14 04:52:07;;;;;;;4.63;2.58;;;;;;;19.68;57.25;99564.31;5090201;28;20044;-92
2022/05/14 04:54:32;;;;;;;6.40;2.53;;;;;;;19.34;57.73;99539.38;5090211;28;20031;-95
2022/05/14 04:56:58;;;;;;;5.80;2.45;;;;;;;19.54;57.22;99549.00;5086312;28;20036;-94
2022/05/14 04:59:23;;;;;;;7.30;3.03;;;;;;;19.75;56.07;99554.97;5078009;28;20086;-90
2022/05/14 05:04:33;;;;;;;4.28;2.55;;;;;;;20.19;55.02;99553.47;5106038;28;20886;-92
2022/05/14 05:07:00;;;;;;;4.68;2.72;;;;;;;20.76;52.96;99560.94;5069829;28;20040;-86
2022/05/14 05:09:26;;;;;;;2.67;2.08;;;;;;;21.10;51.92;99565.13;5097827;28;20473;-89
2022/05/14 05:11:51;;;;;;;4.10;2.63;;;;;;;21.22;51.48;99555.44;5081266;28;20104;-90
2022/05/14 05:14:17;;;;;;;2.40;1.95;;;;;;;21.13;50.01;99550.63;5068726;28;20399;-92
2022/05/14 05:16:43;;;;;;;3.38;2.65;;;;;;;20.89;51.17;99555.69;5078307;28;20493;-94
2022/05/14 05:19:09;;;;;;;8.15;2.80;;;;;;;21.24;50.42;99556.22;5068175;28;20064;-91
2022/05/14 05:21:35;;;;;;;2.75;2.08;;;;;;;21.24;51.77;99539.25;5093995;28;20040;-87
2022/05/14 05:24:05;;;;;;;5.72;2.58;;;;;;;21.50;51.48;99556.44;5068278;28;20039;-88
2022/05/14 05:26:31;;;;;;;4.10;2.05;;;;;;;21.84;50.21;99574.94;5093756;28;20493;-91
2022/05/14 05:28:57;;;;;;;7.13;4.13;;;;;;;21.45;49.99;99545.97;5071964;28;20058;-90
2022/05/14 05:31:22;;;;;;;4.75;3.17;;;;;;;21.72;48.37;99542.56;5068715;28;20092;-92
2022/05/14 05:33:48;;;;;;;3.20;2.05;;;;;;;22.00;47.82;99538.94;5095883;28;20047;-90
2022/05/14 05:36:13;;;;;;;4.90;2.30;;;;;;;22.09;48.75;99544.66;5068814;28;20039;-93
2022/05/14 05:38:40;;;;;;;3.78;1.90;;;;;;;22.64;46.41;99553.63;5069504;28;20039;-92
2022/05/14 05:41:06;;;;;;;2.30;1.25;;;;;;;22.66;46.06;99567.81;5069665;28;20039;-91
2022/05/14 05:43:31;;;;;;;2.65;1.63;;;;;;;22.59;47.03;99555.78;5087357;28;20052;-91
2022/05/14 05:45:57;;;;;;;4.35;2.75;;;;;;;23.29;46.09;99568.91;5069154;28;20047;-90
2022/05/14 05:48:23;;;;;;;3.00;2.13;;;;;;;23.07;47.22;99505.81;5088150;28;20520;-89
2022/05/14 05:50:49;;;;;;;5.45;3.10;;;;;;;22.63;46.34;99522.31;5105642;28;20024;-87
2022/05/14 05:53:16;;;;;;;2.85;2.28;;;;;;;23.05;46.98;99533.81;5106817;28;20122;-87
2022/05/14 05:58:26;;;;;;;5.22;3.55;;;;;;;23.95;43.95;99534.63;5086849;28;20042;-85
2022/05/14 06:00:52;;;;;;;5.57;3.05;;;;;;;23.91;43.43;99521.47;5088480;28;20036;-84
2022/05/14 06:03:18;;;;;;;4.35;3.50;;;;;;;23.78;43.70;99505.34;5090725;28;20028;-85
2022/05/14 06:05:44;;;;;;;4.05;2.25;;;;;;;24.48;43.94;99555.88;5078604;28;20036;-85
2022/05/14 06:08:12;;;;;;;4.15;2.50;;;;;;;24.47;42.80;99535.28;5094257;28;20126;-86
2022/05/14 06:10:38;;;;;;;5.13;2.25;;;;;;;24.64;42.47;99528.63;5071191;28;20055;-86
2022/05/14 06:13:04;;;;;;;3.25;2.53;;;;;;;24.24;42.49;99552.31;5090350;28;20082;-84
2022/05/14 06:15:31;;;;;;;3.75;2.97;;;;;;;24.62;42.61;99538.69;5090476;28;20055;-85
2022/05/14 06:18:04;;;;;;;2.22;1.42;;;;;;;24.76;41.41;99564.59;5071894;28;20028;-83
2022/05/14 06:20:31;;;;;;;5.97;2.17;;;;;;;24.84;40.73;99537.91;5090271;28;20093;-82
2022/05/14 06:22:56;;;;;;;5.07;2.38;;;;;;;25.52;38.79;99546.13;5090501;28;20077;-83
2022/05/14 06:25:22;;;;;;;2.65;1.90;;;;;;;25.89;38.05;99562.09;5090072;28;20443;-84
2022/05/14 06:27:47;;;;;;;4.22;2.45;;;;;;;26.02;37.52;99540.34;5090344;28;20066;-87
2022/05/14 06:30:13;;;;;;;3.65;2.85;;;;;;;26.56;38.96;99562.94;5089929;28;20044;-83
2022/05/14 06:32:39;;;;;;;2.55;2.10;;;;;;;27.13;36.97;99550.00;5089841;28;20089;-85
2022/05/14 06:35:08;;;;;;;3.17;2.00;;;;;;;27.30;37.25;99553.97;5090680;28;20406;-82
2022/05/14 06:37:34;;;;;;;6.50;2.10;;;;;;;26.17;37.71;99545.50;5090463;28;20055;-82
2022/05/14 06:40:00;;;;;;;2.63;1.70;;;;;;;26.56;37.70;99554.81;5090174;28;20032;-85
2022/05/14 06:42:26;;;;;;;3.80;1.88;;;;;;;26.66;37.45;99538.69;5089599;28;20044;-85
2022/05/14 06:44:51;;;;;;;3.85;1.83;;;;;;;27.36;36.11;99544.47;5089947;28;20038;-82
2022/05/14 06:47:17;;;;;;;4.40;2.28;;;;;;;26.71;36.35;99562.66;5089903;28;20032;-84
2022/05/14 06:49:44;;;;;;;2.63;1.63;;;;;;;26.07;38.50;99529.16;5105743;28;20024;-87
2022/05/14 06:52:13;;;;;;;5.50;3.40;;;;;;;25.92;38.49;99531.25;5089694;28;20036;-86
2022/05/14 06:54:42;;;;;;;2.05;1.63;;;;;;;26.60;38.81;99540.06;5089954;28;20633;-88
2022/05/14 06:57:09;;;;;;;7.55;2.80;;;;;;;26.15;37.91;99533.94;5089102;28;20036;-86
2022/05/14 06:59:34;;;;;;;4.60;2.95;;;;;;;26.12;39.02;99559.38;5102504;28;20027;-84
2022/05/14 07:02:01;;;;;;;3.15;2.65;;;;;;;27.09;36.75;99556.66;5093846;28;20418;-85
2022/05/14 07:07:12;;;;;;;3.53;2.05;;;;;;;28.31;34.47;99542.38;5088899;28;20043;-87
2022/05/14 07:09:38;;;;;;;3.88;3.13;;;;;;;27.75;34.62;99541.09;5088163;28;20032;-85
2022/05/14 07:12:10;;;;;;;20.42;3.95;;;;;;;27.13;38.87;99565.41;5088468;28;20086;-84
2022/05/14 07:14:37;;;;;;;3.38;1.40;;;;;;;26.93;37.53;99540.06;5087990;28;20430;-86
2022/05/14 07:17:03;;;;;;;3.45;1.80;;;;;;;27.63;36.89;99568.25;5088307;28;20823;-84
2022/05/14 07:19:29;;;;;;;4.30;2.60;;;;;;;26.62;37.19;99561.56;5087522;28;20066;-85
2022/05/14 07:21:55;;;;;;;5.65;2.33;;;;;;;27.25;37.61;99544.50;5108272;28;20672;-85
2022/05/14 07:24:23;;;;;;;7.32;2.92;;;;;;;27.40;36.30;99545.06;5089844;28;20478;-86
2022/05/14 07:26:51;;;;;;;4.18;2.40;;;;;;;27.72;36.28;99560.31;5101562;28;20028;-87
2022/05/14 07:29:19;;;;;;;2.75;1.73;;;;;;;27.51;38.40;99569.34;5070748;28;20031;-85
2022/05/14 07:31:45;;;;;;;3.33;2.05;;;;;;;27.91;37.31;99579.34;5088548;28;20055;-85
2022/05/14 07:34:12;;;;;;;3.75;2.40;;;;;;;28.27;36.81;99568.06;5088702;28;20035;-86
2022/05/14 07:36:53;;;;;;;3.72;2.45;;;;;;;28.25;34.80;99549.22;5100029;28;20686;-86
2022/05/14 07:39:22;;;;;;;6.22;2.47;;;;;;;28.31;35.45;99528.84;5108659;28;20034;-86
2022/05/14 07:41:53;;;;;;;4.03;2.65;;;;;;;28.90;33.62;99565.88;5089958;28;20047;-86
2022/05/14 07:44:21;;;;;;;5.85;4.13;;;;;;;29.20;35.78;99596.56;5108656;28;20059;-86
2022/05/14 07:46:49;;;;;;;3.45;2.88;;;;;;;29.44;33.67;99562.63;5090791;28;20042;-86
2022/05/14 07:49:16;;;;;;;4.75;2.67;;;;;;;29.21;32.90;99571.16;5108451;28;20023;-87
2022/05/14 07:51:42;;;;;;;5.85;3.22;;;;;;;29.11;34.45;99602.84;5086437;28;20040;-85
2022/05/14 07:54:08;;;;;;;5.07;3.25;;;;;;;29.59;33.98;99576.59;5088069;28;20082;-86
2022/05/14 07:56:34;;;;;;;2.58;1.52;;;;;;;30.19;33.49;99597.97;5088177;28;20056;-86
2022/05/14 07:59:00;;;;;;;4.95;1.80;;;;;;;29.55;33.87;99543.44;5094482;28;20493;-86
2022/05/14 08:01:25;;;;;;;12.73;2.47;;;;;;;30.18;33.52;99580.81;5108615;28;20810;-85
2022/05/14 08:03:52;;;;;;;4.75;3.05;;;;;;;30.36;31.14;99585.41;5107923;28;20057;-85
2022/05/14 08:06:17;;;;;;;3.53;2.35;;;;;;;30.52;31.00;99579.31;5108405;28;20547;-84
2022/05/14 08:08:43;;;;;;;3.67;1.95;;;;;;;30.62;31.34;99574.66;5090086;28;20031;-84
2022/05/14 08:11:10;;;;;;;6.07;2.30;;;;;;;30.29;31.91;99603.34;5088349;28;20031;-84
2022/05/14 08:13:36;;;;;;;3.22;2.22;;;;;;;29.08;33.29;99560.53;5087468;28;20036;-83
2022/05/14 08:16:02;;;;;;;3.72;2.30;;;;;;;28.83;33.93;99561.16;5088034;28;20040;-83
2022/05/14 08:18:28;;;;;;;4.20;2.20;;;;;;;29.04;32.86;99559.13;5087924;28;20036;-84
2022/05/14 08:20:54;;;;;;;3.60;1.90;;;;;;;29.38;34.41;99599.41;5088058;28;20024;-83
2022/05/14 08:26:04;;;;;;;;;;;;;;;28.90;35.22;99587.59;5088283;28;20031;-82
2022/05/14 08:28:30;;;;;;;5.07;2.47;;;;;;;28.65;36.12;99580.84;5087573;28;20382;-83
2022/05/14 08:30:56;;;;;;;8.05;2.38;;;;;;;28.63;36.06;99561.16;5087592;28;20424;-83
2022/05/14 08:33:22;;;;;;;3.30;1.98;;;;;;;28.54;37.06;99595.38;5087494;28;20036;-84
2022/05/14 08:35:47;;;;;;;2.72;1.90;;;;;;;28.35;38.07;99596.22;5087737;28;20050;-83
2022/05/14 08:38:18;;;;;;;3.88;2.22;;;;;;;28.39;39.56;99613.94;5069702;28;20498;-83
2022/05/14 08:40:56;;;;;;;5.78;1.98;;;;;;;28.04;36.50;99590.84;5087528;28;20111;-85
2022/05/14 08:43:31;;;;;;;2.60;1.98;;;;;;;27.14;35.63;99586.03;5087467;28;20054;-84
2022/05/14 08:45:57;;;;;;;3.75;2.17;;;;;;;26.98;35.94;99600.03;5087907;28;20055;-85
2022/05/14 08:48:32;;;;;;;5.35;2.05;;;;;;;26.31;36.68;99620.06;5087177;28;20074;-84
2022/05/14 08:51:16;;;;;;;6.10;2.63;;;;;;;25.86;37.79;99602.84;5087332;28;20036;-84
2022/05/14 08:53:45;;;;;;;4.15;2.35;;;;;;;25.98;38.00;99627.19;5087064;28;20043;-84
2022/05/14 08:56:21;;;;;;;3.05;2.05;;;;;;;25.87;39.00;99644.22;5087463;28;20077;-84
2022/05/14 08:59:08;;;;;;;2.75;2.08;;;;;;;25.59;38.44;99656.38;5088006;28;20028;-84
2022/05/14 09:01:37;;;;;;;6.30;4.10;;;;;;;25.55;39.02;99639.56;5087634;28;20036;-84
2022/05/14 09:04:04;;;;;;;2.35;1.65;;;;;;;24.92;39.25;99602.06;5086556;28;20028;-84
2022/05/14 09:06:29;;;;;;;1.95;1.40;;;;;;;25.14;40.62;99671.41;5088006;28;20066;-84
2022/05/14 09:08:55;;;;;;;2.63;1.38;;;;;;;24.89;40.75;99631.97;5087077;28;20063;-84
2022/05/14 09:11:28;;;;;;;1.83;1.38;;;;;;;24.65;41.49;99640.94;5068654;28;20036;-84
2022/05/14 09:13:59;;;;;;;3.45;1.90;;;;;;;24.63;41.78;99669.81;5068181;28;20135;-84
2022/05/14 09:16:24;;;;;;;4.60;2.15;;;;;;;24.77;41.57;99679.59;5085974;28;20108;-84
2022/05/14 09:18:51;;;;;;;2.47;1.75;;;;;;;24.31;43.14;99681.13;5086931;28;20486;-83
2022/05/14 09:21:32;;;;;;;3.25;1.73;;;;;;;23.99;43.91;99694.22;5086001;28;20473;-84
2022/05/14 09:24:00;;;;;;;2.53;1.73;;;;;;;23.56;45.00;99675.63;5068858;28;20565;-84
2022/05/14 09:26:34;;;;;;;4.65;3.97;;;;;;;23.83;45.09;99680.91;5085992;28;20044;-84
2022/05/14 09:29:31;;;;;;;3.75;2.30;;;;;;;23.83;44.46;99689.00;5086776;28;20036;-85
2022/05/14 09:32:00;;;;;;;9.45;4.55;;;;;;;23.67;44.84;99674.91;5072004;28;20083;-85
2022/05/14 09:34:28;;;;;;;9.18;3.70;;;;;;;23.49;45.18;99659.03;5088357;28;20028;-84
2022/05/14 09:37:01;;;;;;;5.03;3.67;;;;;;;23.60;45.83;99631.38;5072519;28;20472;-85
2022/05/14 09:39:28;;;;;;;3.75;2.45;;;;;;;23.65;45.56;99652.56;5090745;28;20028;-84
2022/05/14 09:42:01;;;;;;;1.98;1.65;;;;;;;23.81;44.17;99690.94;5090501;28;20127;-84
2022/05/14 09:44:34;;;;;;;2.72;1.23;;;;;;;24.02;42.87;99707.47;5072237;28;20489;-86
2022/05/14 09:47:12;;;;;;;2.45;1.77;;;;;;;23.98;42.83;99697.00;5090753;28;20047;-85
2022/05/14 09:49:41;;;;;;;2.40;1.70;;;;;;;24.01;42.20;99686.03;5090716;28;20516;-86
2022/05/14 09:52:10;;;;;;;1.25;0.77;;;;;;;24.20;41.53;99686.41;5090365;28;20031;-85
2022/05/14 09:54:41;;;;;;;4.32;1.85;;;;;;;24.42;43.24;99701.03;5091733;28;20022;-84
2022/05/14 09:57:34;;;;;;;3.00;1.75;;;;;;;24.55;42.25;99720.72;5099674;28;20490;-85
2022/05/14 10:00:21;;;;;;;1.88;1.25;;;;;;;24.74;42.71;99714.03;5090738;28;20032;-83
2022/05/14 10:03:16;;;;;;;3.33;1.33;;;;;;;24.34;42.50;99663.84;5089325;28;20402;-84
2022/05/14 10:05:50;;;;;;;0.95;0.88;;;;;;;24.58;43.32;99701.66;5090666;28;20039;-88
2022/05/14 10:08:36;;;;;;;2.28;1.40;;;;;;;24.28;45.02;99659.78;5088528;28;20036;-84
2022/05/14 10:11:28;;;;;;;2.33;1.67;;;;;;;24.28;45.25;99680.47;5090564;28;20028;-85
2022/05/14 10:14:23;;;;;;;2.15;1.50;;;;;;;24.58;44.88;99668.47;5090102;28;20036;-84
2022/05/14 10:17:27;;;;;;;1.35;1.13;;;;;;;24.30;44.29;99674.00;5085200;28;20471;-86
2022/05/14 10:20:17;;;;;;;1.63;1.27;;;;;;;24.47;44.41;99675.47;5103757;28;20093;-85
2022/05/14 10:28:57;;;;;;;4.03;2.38;;;;;;;24.71;42.73;99680.03;5109891;28;20108;-87
2022/05/14 10:31:33;;;;;;;1.20;1.10;;;;;;;24.65;44.33;99659.81;5091626;28;20027;-86
2022/05/14 10:34:05;;;;;;;1.42;0.70;;;;;;;24.70;45.38;99647.78;5110030;28;20497;-86
2022/05/14 10:36:40;;;;;;;1.50;1.08;;;;;;;24.64;44.13;99660.78;5088351;28;20073;-87
2022/05/14 10:39:20;;;;;;;1.40;1.08;;;;;;;24.64;45.00;99690.44;5089918;28;20047;-87
2022/05/14 10:41:48;;;;;;;2.55;1.38;;;;;;;24.72;43.98;99681.78;5070692;28;20143;-87
2022/05/14 10:44:41;;;;;;;2.38;1.30;;;;;;;25.13;44.78;99687.72;5089703;28;20046;-87
2022/05/14 10:47:09;;;;;;;1.00;0.90;;;;;;;25.64;44.63;99682.03;5089099;28;20078;-86
2022/05/14 10:49:43;;;;;;;3.15;1.30;;;;;;;26.30;44.12;99667.00;5089519;28;20024;-88
2022/05/14 10:52:16;;;;;;;1.53;1.00;;;;;;;26.08;40.75;99625.47;5071368;28;20072;-89
2022/05/14 10:54:46;;;;;;;1.13;0.73;;;;;;;26.04;41.53;99645.63;5089781;28;20024;-85
2022/05/14 10:57:15;;;;;;;1.67;1.08;;;;;;;26.23;46.34;99685.56;5089510;28;20052;-85
2022/05/14 10:59:54;;;;;;;3.28;1.67;;;;;;;26.15;44.26;99680.78;5089876;28;20051;-85
2022/05/14 11:02:31;;;;;;;2.92;1.35;;;;;;;25.89;44.63;99655.81;5089520;28;20085;-85
2022/05/14 11:04:57;;;;;;;3.10;1.85;;;;;;;26.21;45.91;99661.34;5089437;28;20139;-86
2022/05/14 11:07:37;;;;;;;2.83;1.63;;;;;;;26.39;42.57;99655.44;5089744;28;20035;-87
2022/05/14 11:10:28;;;;;;;2.38;1.23;;;;;;;26.44;42.40;99685.66;5089628;28;20035;-86
2022/05/14 11:12:54;;;;;;;3.40;1.52;;;;;;;26.14;45.73;99675.50;5088853;28;20040;-87
2022/05/14 11:15:25;;;;;;;3.53;2.25;;;;;;;26.36;44.67;99698.94;5089301;28;20111;-86
2022/05/14 11:18:08;;;;;;;2.38;1.85;;;;;;;26.01;41.89;99654.84;5089175;28;20042;-85
2022/05/14 11:20:35;;;;;;;1.00;0.90;;;;;;;25.51;42.95;99620.00;5071164;28;20035;-86
2022/05/14 11:23:12;;;;;;;1.30;0.88;;;;;;;26.22;42.83;99683.81;5087941;28;20518;-88
2022/05/14 11:25:38;;;;;;;1.77;1.25;;;;;;;25.99;42.02;99655.94;5088834;28;20048;-87
2022/05/14 11:28:09;;;;;;;2.33;1.23;;;;;;;25.68;44.59;99675.41;5089135;28;20035;-87
2022/05/14 11:30:39;;;;;;;2.15;1.30;;;;;;;25.67;45.70;99664.72;5088365;28;20016;-87
2022/05/14 11:33:37;;;;;;;2.35;1.25;;;;;;;25.74;46.15;99606.53;5088725;28;20039;-87
2022/05/14 11:36:25;;;;;;;1.23;1.13;;;;;;;25.64;45.69;99610.94;5076257;28;20403;-89
2022/05/14 11:39:20;;;;;;;8.23;2.63;;;;;;;25.92;46.37;99666.38;5090506;28;20044;-87
2022/05/14 11:41:46;;;;;;;;;;;;;;;26.00;46.93;99655.81;5081237;28;20428;-87
2022/05/14 11:44:14;;;;;;;3.03;2.00;;;;;;;25.71;47.27;99634.66;5106702;28;20002;-91
2022/05/14 11:46:42;;;;;;;3.72;1.77;;;;;;;25.64;46.23;99621.75;5090775;28;20097;-88
2022/05/14 11:49:23;;;;;;;6.00;2.15;;;;;;;25.95;47.21;99633.69;5108337;28;20023;-86
2022/05/14 11:51:57;;;;;;;1.20;0.93;;;;;;;26.00;46.90;99653.13;5109184;28;20023;-88
2022/05/14 11:54:31;;;;;;;2.58;1.65;;;;;;;26.24;47.76;99620.56;5089895;28;20092;-86
2022/05/14 11:57:06;;;;;;;2.92;2.05;;;;;;;26.23;46.41;99616.13;5089529;28;20035;-88
2022/05/14 11:59:34;;;;;;;;;;;;;;;26.24;45.86;99622.38;5108571;28;20077;-87
2022/05/14 12:02:03;;;;;;;1.83;1.25;;;;;;;26.07;45.21;99577.81;5090375;28;19922;-87
2022/05/14 12:04:39;;;;;;;7.28;1.63;;;;;;;26.37;46.73;99614.09;5108501;28;20036;-87
2022/05/14 12:07:27;;;;;;;3.80;1.83;;;;;;;26.55;44.59;99604.47;5089431;28;20063;-88